Betsiamites, Canada
Current Conditions -  °F | °C
As of 5:00 PM on Thursday 23 Oct 2014 (Local Time) from CYBC Reporting Station
Clear Clear  
Wind Chill: 37°   Ceiling: Unl
Heat Index: 43°   Visibility: 9mi
Dew Point: 36°   Wind: 12mph
Humidity: 76%   Direction: 90°E
Pressure: 30.2"   Gusts: NA
Location:  48.95°N, 68.65°W
Report Text: CYBC 232100Z AUTO 09010KT 9SM CLR 06/02 A3020 RMK SLP226
Loading
Personal Weather Stations






























Interactive Weather Map
Tropical Storm Tracking
New forecast layout! Learn more

10-Day Weather Forecast

Advertisements
Track Severe Weather on mobile